Flight Track Log - Related Links

Times and Time Zones

All times are in EDT time to prevent confusion due to time zone crossing. See the UAL1021 flight status page for this flight to view local times or setup timezone preferences in your user account.

Time Position Orientation Groundspeed Altitude Reporting Facility
EDT Latitude Longitude Course Direction KTS MPH feet Rate Location/Type
Fri 05:37:38 PM 40.7162 -74.1525 26° Northeast 188 216 1,200  Level FlightAware ADS-B
Fri 05:37:57 PM 40.7286 -74.1386 40° Northeast 177 204 1,800 1,909 Climbing FlightAware ADS-B
Fri 05:38:00 PM 40.7309 -74.1365 35° Northeast 185 213 1,900 1,846 Climbing FlightAware ADS-B
Fri 05:38:10 PM 40.7387 -74.1327 20° North 190 219 2,200 2,143 Climbing FlightAware ADS-B
Fri 05:38:14 PM 40.7425 -74.1322 North 191 220 2,400 2,667 Climbing FlightAware ADS-B
Fri 05:38:19 PM 40.7469 -74.1319 North 191 220 2,600 3,000 Climbing FlightAware ADS-B
Fri 05:38:22 PM 40.7496 -74.1319 360° North 193 222 2,800 3,000 Climbing FlightAware ADS-B
Fri 05:38:25 PM 40.7524 -74.1323 354° North 196 226 2,900 1,000 Climbing FlightAware ADS-B
Fri 05:38:28 PM 40.7550 -74.1331 347° North 200 230 2,900 857 Level FlightAware ADS-B
Fri 05:38:32 PM 40.7587 -74.1349 340° North 206 237 3,000 1,800 Climbing FlightAware ADS-B
Fri 05:38:38 PM 40.7633 -74.1385 329° Northwest 212 244 3,200 2,000 Climbing FlightAware ADS-B
Fri 05:38:41 PM 40.7657 -74.1409 323° Northwest 219 252 3,300 750 Climbing FlightAware ADS-B
Fri 05:38:46 PM 40.7699 -74.1460 317° Northwest 231 266 3,300 667 Level FlightAware ADS-B
Fri 05:38:50 PM 40.7723 -74.1498 310° West 235 270 3,400 857 Climbing FlightAware ADS-B
Fri 05:38:53 PM 40.7746 -74.1543 304° West 247 284 3,400  Level FlightAware ADS-B
Fri 05:38:58 PM 40.7769 -74.1610 294° West 257 296 3,400 600 Level FlightAware ADS-B
Fri 05:39:03 PM 40.7784 -74.1686 285° West 268 308 3,500 750 Climbing FlightAware ADS-B
Fri 05:39:06 PM 40.7789 -74.1734 278° West 273 314 3,500 1,000 Level FlightAware ADS-B
Fri 05:39:09 PM 40.7789 -74.1788 270° West 278 320 3,600 2,250 Climbing FlightAware ADS-B
Fri 05:39:14 PM 40.7779 -74.1867 261° West 280 322 3,800 2,250 Climbing FlightAware ADS-B
Fri 05:39:17 PM 40.7768 -74.1917 254° West 280 322 3,900 2,308 Climbing FlightAware ADS-B
Fri 05:39:27 PM 40.7695 -74.2072 238° Southwest 278 320 4,300 2,118 Climbing FlightAware ADS-B
Fri 05:39:34 PM 40.7628 -74.2146 220° Southwest 278 320 4,500 1,286 Climbing FlightAware ADS-B
Fri 05:39:41 PM 40.7551 -74.2195 206° Southwest 280 322 4,600 1,091 Climbing FlightAware ADS-B
Fri 05:39:45 PM 40.7497 -74.2215 196° South 281 323 4,700 2,308 Climbing FlightAware ADS-B
Fri 05:39:54 PM 40.7380 -74.2249 192° South 282 325 5,100 2,571 Climbing FlightAware ADS-B
Fri 05:39:59 PM 40.7324 -74.2267 194° South 281 323 5,300 3,000 Climbing FlightAware ADS-B
Fri 05:40:10 PM 40.7182 -74.2307 192° South 280 322 5,900 3,000 Climbing FlightAware ADS-B
Fri 05:40:19 PM 40.7070 -74.2334 190° South 280 322 6,300 2,250 Climbing FlightAware ADS-B
Fri 05:40:26 PM 40.6981 -74.2354 190° South 281 323 6,500 1,667 Climbing FlightAware ADS-B
Fri 05:40:37 PM 40.6828 -74.2388 190° South 288 331 6,800 1,600 Climbing FlightAware ADS-B
Fri 05:40:41 PM 40.6777 -74.2400 190° South 293 337 6,900 2,308 Climbing FlightAware ADS-B
Fri 05:40:50 PM 40.6657 -74.2430 191° South 294 338 7,300 2,824 Climbing FlightAware ADS-B
Fri 05:40:58 PM 40.6556 -74.2462 194° South 291 335 7,700 3,333 Climbing FlightAware ADS-B
Fri 05:40:59 PM 40.6543 -74.2467 196° South 291 335 7,800 1,500 Climbing FlightAware ADS-B
Fri 05:41:02 PM 40.6506 -74.2486 201° Southwest 293 337 7,800 1,333 Level FlightAware ADS-B
Fri 05:41:08 PM 40.6434 -74.2540 210° Southwest 303 349 8,000 1,800 Climbing FlightAware ADS-B
Fri 05:41:12 PM 40.6381 -74.2598 220° Southwest 309 356 8,100 1,200 Climbing FlightAware ADS-B
Fri 05:41:13 PM 40.6376 -74.2604 222° Southwest 309 356 8,100 3,000 Level FlightAware ADS-B
Fri 05:41:18 PM 40.6325 -74.2675 227° Southwest 312 359 8,400 3,429 Climbing FlightAware ADS-B
Fri 05:41:27 PM 40.6239 -74.2798 227° Southwest 304 350 8,900 3,200 Climbing FlightAware ADS-B
Fri 05:41:33 PM 40.6181 -74.2885 229° Southwest 303 349 9,200 2,625 Climbing FlightAware ADS-B
Fri 05:41:43 PM 40.6091 -74.3021 229° Southwest 302 348 9,600 2,308 Climbing FlightAware ADS-B
Fri 05:41:46 PM 40.6066 -74.3061 231° Southwest 302 348 9,700 2,143 Climbing FlightAware ADS-B
Fri 05:42:11 PM 40.5840 -74.3425 231° Southwest 311 358 10,600 2,308 Climbing FlightAware ADS-B
Fri 05:42:25 PM 40.5712 -74.3620 229° Southwest 302 348 11,200 2,286 Climbing FlightAware ADS-B
Fri 05:42:32 PM 40.5627 -74.3704 217° Southwest 301 346 11,400 1,500 Climbing FlightAware ADS-B
Fri 05:42:33 PM 40.5615 -74.3713 210° Southwest 301 346 11,400 1,500 Level FlightAware ADS-B
Fri 05:42:40 PM 40.5529 -74.3766 205° Southwest 303 349 11,600 2,000 Climbing FlightAware ADS-B
Fri 05:42:45 PM 40.5456 -74.3793 196° South 300 345 11,800 3,000 Climbing FlightAware ADS-B
Fri 05:42:50 PM 40.5396 -74.3803 187° South 293 337 12,100 4,286 Climbing FlightAware ADS-B
Fri 05:42:59 PM 40.5286 -74.3799 178° South 275 316 12,800 4,500 Climbing FlightAware ADS-B
Fri 05:43:02 PM 40.5237 -74.3791 173° South 277 319 13,000 2,571 Climbing FlightAware ADS-B
Fri 05:43:06 PM 40.5193 -74.3779 168° South 269 310 13,100 1,385 Climbing FlightAware ADS-B
Fri 05:43:15 PM 40.5087 -74.3730 161° South 273 314 13,300 462 Climbing FlightAware ADS-B
Fri 05:43:19 PM 40.5044 -74.3700 152° Southeast 279 321 13,200 -1,333 Descending FlightAware ADS-B
Fri 05:43:24 PM 40.4989 -74.3652 146° Southeast 288 331 13,100 -857 Descending FlightAware ADS-B
Fri 05:43:26 PM 40.4964 -74.3625 141° Southeast 281 323 13,100 -857 Level FlightAware ADS-B
Fri 05:43:31 PM 40.4918 -74.3572 139° Southeast 303 349 13,000 581 Descending FlightAware ADS-B
Fri 05:43:57 PM 40.4620 -74.3233 139° Southeast 328 377 13,400 1,200 Climbing FlightAware ADS-B
Fri 05:44:01 PM 40.4576 -74.3184 140° Southeast 328 377 13,600 2,063 Climbing FlightAware ADS-B
Fri 05:44:29 PM 40.4242 -74.2811 140° Southeast 336 387 14,500 1,729 Climbing FlightAware ADS-B
Fri 05:45:00 PM 40.3864 -74.2408 141° Southeast 346 398 15,300 1,810 Climbing FlightAware ADS-B
Fri 05:45:32 PM 40.3463 -74.1985 141° Southeast 349 402 16,400 1,826 Climbing FlightAware ADS-B
Fri 05:45:46 PM 40.3283 -74.1816 144° Southeast 354 407 16,700 1,000 Climbing FlightAware ADS-B
Fri 05:45:50 PM 40.3223 -74.1776 153° Southeast 356 410 16,700 545 Level FlightAware ADS-B
Fri 05:45:57 PM 40.3112 -74.1723 160° South 359 413 16,800 1,091 Climbing FlightAware ADS-B
Fri 05:46:01 PM 40.3049 -74.1703 166° South 361 415 16,900 2,000 Climbing FlightAware ADS-B
Fri 05:46:09 PM 40.2910 -74.1684 174° South 362 417 17,200 1,875 Climbing FlightAware ADS-B
Fri 05:46:17 PM 40.2787 -74.1696 184° South 361 415 17,400 2,211 Climbing FlightAware ADS-B
Fri 05:46:47 PM 40.2300 -74.1829 192° South 353 406 18,600 1,548 Climbing FlightAware ADS-B
Fri 05:47:19 PM 40.1772 -74.1993 193° South 375 432 19,000 1,258 Climbing FlightAware ADS-B
Fri 05:47:49 PM 40.1263 -74.2151 193° South 376 433 19,900 1,672 Climbing FlightAware ADS-B
Fri 05:48:20 PM 40.0730 -74.2315 193° South 377 434 20,700 1,500 Climbing FlightAware ADS-B
Fri 05:48:45 PM 40.0316 -74.2444 193° South 380 437 21,300 1,455 Climbing FlightAware ADS-B
Fri 05:48:53 PM 40.0184 -74.2502 199° South 380 437 21,500 1,875 Climbing FlightAware ADS-B
Fri 05:49:01 PM 40.0053 -74.2576 203° Southwest 378 435 21,800 1,714 Climbing FlightAware ADS-B
Fri 05:49:14 PM 39.9856 -74.2719 209° Southwest 380 437 22,100 1,059 Climbing FlightAware ADS-B
Fri 05:49:18 PM 39.9798 -74.2770 214° Southwest 381 438 22,100 1,200 Level FlightAware ADS-B
Fri 05:49:49 PM 39.9356 -74.3192 216° Southwest 384 442 22,800 1,183 Climbing FlightAware ADS-B
Fri 05:50:29 PM 39.8777 -74.3743 216° Southwest 391 450 23,500 1,114 Climbing FlightAware ADS-B
Fri 05:50:59 PM 39.8328 -74.4170 216° Southwest 393 452 24,100 947 Climbing FlightAware ADS-B
Fri 05:51:07 PM 39.8223 -74.4277 218° Southwest 397 457 24,100 818 Level FlightAware ADS-B
Fri 05:51:21 PM 39.8024 -74.4515 223° Southwest 398 458 24,400 1,364 Climbing FlightAware ADS-B
Fri 05:51:51 PM 39.7637 -74.5026 225° Southwest 396 456 25,100 1,452 Climbing FlightAware ADS-B
Fri 05:52:23 PM 39.7236 -74.5558 226° Southwest 392 451 25,900 1,452 Climbing FlightAware ADS-B
Fri 05:52:53 PM 39.6853 -74.6068 226° Southwest 386 444 26,600 1,219 Climbing FlightAware ADS-B
Fri 05:53:27 PM 39.6433 -74.6623 226° Southwest 388 447 27,200 656 Climbing FlightAware ADS-B
Fri 05:53:57 PM 39.6045 -74.7131 225° Southwest 398 458 27,300 277 Climbing FlightAware ADS-B
Fri 05:54:32 PM 39.5597 -74.7721 225° Southwest 408 470 27,500 636 Climbing FlightAware ADS-B
Fri 05:55:03 PM 39.5174 -74.8276 225° Southwest 414 476 28,000 857 Climbing FlightAware ADS-B
Fri 05:55:35 PM 39.4746 -74.8838 225° Southwest 417 480 28,400 774 Climbing FlightAware ADS-B
Fri 05:56:05 PM 39.4337 -74.9371 225° Southwest 418 481 28,800 900 Climbing FlightAware ADS-B
Fri 05:56:35 PM 39.3926 -74.9907 225° Southwest 419 482 29,300 844 Climbing FlightAware ADS-B
Fri 05:57:09 PM 39.3474 -75.0497 225° Southwest 420 483 29,700 764 Climbing FlightAware ADS-B
Fri 05:57:30 PM 39.3182 -75.0864 224° Southwest 419 482 30,000 923 Climbing FlightAware ADS-B
Fri 05:57:48 PM 39.2885 -75.1120 214° Southwest 417 480 30,300 923 Climbing FlightAware ADS-B
Fri 05:57:56 PM 39.2742 -75.1208 205° Southwest 418 481 30,400 857 Climbing FlightAware ADS-B
Fri 05:58:02 PM 39.2647 -75.1256 201° Southwest 418 481 30,500 833 Climbing FlightAware ADS-B
Fri 05:58:32 PM 39.2095 -75.1490 198° South 417 480 30,900 900 Climbing FlightAware ADS-B
Fri 05:59:02 PM 39.1556 -75.1720 198° South 415 478 31,400 923 Climbing FlightAware ADS-B
Fri 05:59:37 PM 39.0908 -75.1994 198° South 414 476 31,900 507 Climbing FlightAware ADS-B
Fri 06:00:13 PM 39.0253 -75.2271 198° South 415 478 32,000 91 Climbing FlightAware ADS-B
Fri 06:00:43 PM 38.9692 -75.2506 198° South 416 479 32,000  Level FlightAware ADS-B
Fri 06:01:23 PM 38.8969 -75.2810 198° South 416 479 32,000  Level FlightAware ADS-B
Fri 06:01:54 PM 38.8401 -75.3054 199° South 415 478 32,000  Level FlightAware ADS-B
Fri 06:02:25 PM 38.7870 -75.3383 206° Southwest 415 478 32,000  Level FlightAware ADS-B
Fri 06:02:55 PM 38.7358 -75.3739 208° Southwest 419 482 32,000  Level FlightAware ADS-B
Fri 06:03:32 PM 38.6722 -75.4174 208° Southwest 425 489 32,000  Level FlightAware ADS-B
Fri 06:04:03 PM 38.6185 -75.4543 208° Southwest 425 489 32,000  Level FlightAware ADS-B
Fri 06:04:34 PM 38.5653 -75.4904 208° Southwest 426 490 32,000  Level FlightAware ADS-B
Fri 06:05:05 PM 38.5112 -75.5269 208° Southwest 428 493 32,000  Level FlightAware ADS-B
Fri 06:05:36 PM 38.4566 -75.5638 208° Southwest 427 491 32,000  Level FlightAware ADS-B
Fri 06:06:25 PM 38.3718 -75.6212 208° Southwest 426 490 32,000  Level FlightAware ADS-B
Fri 06:06:55 PM 38.3196 -75.6564 208° Southwest 426 490 32,000  Level FlightAware ADS-B
Fri 06:07:25 PM 38.2672 -75.6916 208° Southwest 425 489 32,000  Level FlightAware ADS-B
Fri 06:07:57 PM 38.2114 -75.7292 208° Southwest 425 489 32,000  Level FlightAware ADS-B
Fri 06:08:59 PM 38.1170 -75.7930 208° Southwest 417 480 32,000  Level FlightAware ADS-B
Fri 06:09:37 PM 38.0400 -75.8440 208° Southwest 417 480 32,000  Level FlightAware ADS-B
Fri 06:10:03 PM 37.9933 -75.8751 208° Southwest 424 488 32,000  Level FlightAware ADS-B
Fri 06:10:33 PM 37.9409 -75.9102 208° Southwest 423 487 32,000  Level FlightAware ADS-B
Fri 06:11:05 PM 37.8853 -75.9472 208° Southwest 422 486 32,000  Level FlightAware ADS-B
Fri 06:11:35 PM 37.8400 -75.9770 207° Southwest 422 486 32,000  Level FlightAware ADS-B
Fri 06:12:26 PM 37.7470 -76.0390 208° Southwest 420 483 32,000  Level FlightAware ADS-B
Fri 06:13:01 PM 37.6890 -76.0770 207° Southwest 420 483 32,000  Level FlightAware ADS-B
Fri 06:13:49 PM 37.6030 -76.1340 208° Southwest 420 483 32,000  Level FlightAware ADS-B
Fri 06:14:29 PM 37.5340 -76.1790 207° Southwest 422 486 32,000  Level FlightAware ADS-B
Fri 06:14:55 PM 37.4890 -76.2090 208° Southwest 423 487 32,000  Level FlightAware ADS-B
Fri 06:15:55 PM 37.3829 -76.2788 208° Southwest 424 488 32,000  Level FlightAware ADS-B
Fri 06:16:30 PM 37.3228 -76.3183 208° Southwest 425 489 32,000  Level FlightAware ADS-B
Fri 06:17:05 PM 37.2613 -76.3584 207° Southwest 426 490 32,000  Level FlightAware ADS-B
Fri 06:17:37 PM 37.2065 -76.3941 207° Southwest 426 490 32,000  Level FlightAware ADS-B
Fri 06:18:08 PM 37.1519 -76.4296 207° Southwest 427 491 32,000  Level FlightAware ADS-B
Fri 06:18:41 PM 37.0939 -76.4672 207° Southwest 427 491 32,000  Level FlightAware ADS-B
Fri 06:19:24 PM 37.0180 -76.5170 208° Southwest 427 491 32,000  Level FlightAware ADS-B
Fri 06:20:02 PM 36.9550 -76.5570 207° Southwest 426 490 32,000  Level FlightAware ADS-B
Fri 06:20:38 PM 36.8890 -76.6000 208° Southwest 426 490 32,000  Level FlightAware ADS-B
Fri 06:21:20 PM 36.8150 -76.6470 207° Southwest 426 490 32,000  Level FlightAware ADS-B
Fri 06:22:02 PM 36.7430 -76.6940 208° Southwest 427 491 32,000  Level FlightAware ADS-B
Fri 06:22:39 PM 36.6850 -76.7310 207° Southwest 427 491 32,000  Level FlightAware ADS-B
Fri 06:23:37 PM 36.5790 -76.7990 207° Southwest 429 494 32,000  Level FlightAware ADS-B
Fri 06:24:21 PM 36.5000 -76.8490 207° Southwest 421 484 32,000  Level FlightAware ADS-B
Fri 06:25:01 PM 36.4290 -76.8950 208° Southwest 421 484 32,000  Level FlightAware ADS-B
Fri 06:25:36 PM 36.3670 -76.9340 207° Southwest 420 483 32,000  Level FlightAware ADS-B
Fri 06:26:21 PM 36.2890 -76.9840 207° Southwest 421 484 32,000  Level FlightAware ADS-B
Fri 06:27:01 PM 36.2170 -77.0290 207° Southwest 420 483 32,000  Level FlightAware ADS-B
Fri 06:27:36 PM 36.1550 -77.0690 208° Southwest 422 486 32,000  Level FlightAware ADS-B
Fri 06:28:21 PM 36.0750 -77.1190 207° Southwest 431 496 32,000  Level FlightAware ADS-B
Fri 06:29:03 PM 36.0060 -77.1620 207° Southwest 432 497 32,000  Level FlightAware ADS-B
Fri 06:29:43 PM 35.9350 -77.2070 207° Southwest 432 497 32,000  Level FlightAware ADS-B
Fri 06:30:23 PM 35.8620 -77.2530 207° Southwest 432 497 32,000  Level FlightAware ADS-B
Fri 06:31:26 PM 35.7530 -77.3200 207° Southwest 430 495 32,000  Level FlightAware ADS-B
Fri 06:32:00 PM 35.6920 -77.3730 215° Southwest 434 499 32,000  Level FlightAware ADS-B
Fri 06:32:38 PM 35.6410 -77.4230 219° Southwest 434 499 32,000  Level FlightAware ADS-B
Fri 06:33:26 PM 35.5780 -77.4870 220° Southwest 434 499 32,000  Level FlightAware ADS-B
Fri 06:34:02 PM 35.5300 -77.5340 219° Southwest 434 499 32,000  Level FlightAware ADS-B
Fri 06:34:38 PM 35.4820 -77.5820 219° Southwest 434 499 32,000  Level FlightAware ADS-B
Fri 06:35:15 PM 35.4330 -77.6300 219° Southwest 434 499 32,000  Level FlightAware ADS-B
Fri 06:36:03 PM 35.3690 -77.6940 219° Southwest 434 499 32,000  Level FlightAware ADS-B
Fri 06:36:39 PM 35.3220 -77.7410 219° Southwest 434 499 32,000  Level FlightAware ADS-B
Fri 06:37:28 PM 35.2570 -77.8060 219° Southwest 434 499 32,000  Level FlightAware ADS-B
Fri 06:38:04 PM 35.2090 -77.8530 219° Southwest 434 499 32,000  Level FlightAware ADS-B
Fri 06:38:53 PM 35.1440 -77.9170 219° Southwest 434 499 32,000  Level FlightAware ADS-B
Fri 06:39:30 PM 35.0950 -77.9660 219° Southwest 434 499 32,000  Level FlightAware ADS-B
Fri 06:40:19 PM 35.0300 -78.0300 219° Southwest 434 499 32,000  Level FlightAware ADS-B
Fri 06:40:59 PM 34.8430 -78.2080 218° Southwest 431 496 32,000  Level FlightAware ADS-B
Fri 06:41:40 PM 34.7890 -78.2590 218° Southwest 431 496 32,000  Level FlightAware ADS-B
Fri 06:42:21 PM 34.7160 -78.3300 219° Southwest 431 496 32,000  Level FlightAware ADS-B
Fri 06:42:57 PM 34.6660 -78.3770 218° Southwest 431 496 32,000  Level FlightAware ADS-B
Fri 06:43:45 PM 34.6020 -78.4380 218° Southwest 431 496 32,000  Level FlightAware ADS-B
Fri 06:44:21 PM 34.5540 -78.4840 218° Southwest 431 496 32,000  Level FlightAware ADS-B
Fri 06:45:09 PM 34.4900 -78.5450 218° Southwest 431 496 32,000  Level FlightAware ADS-B
Fri 06:45:45 PM 34.4420 -78.5900 218° Southwest 431 496 32,000  Level FlightAware ADS-B
Fri 06:46:21 PM 34.3940 -78.6360 218° Southwest 431 496 32,000  Level FlightAware ADS-B
Fri 06:47:10 PM 34.3280 -78.6980 218° Southwest 431 496 32,000  Level FlightAware ADS-B
Fri 06:47:46 PM 34.2800 -78.7430 218° Southwest 431 496 32,000  Level FlightAware ADS-B
Fri 06:48:24 PM 34.2300 -78.7910 218° Southwest 431 496 32,000  Level FlightAware ADS-B
Fri 06:49:00 PM 34.1820 -78.8360 218° Southwest 431 496 32,000  Level FlightAware ADS-B
Fri 06:49:49 PM 34.1160 -78.8980 218° Southwest 431 496 32,000  Level FlightAware ADS-B
Fri 06:50:30 PM 33.9380 -79.0500 215° Southwest 436 502 32,000  Level FlightAware ADS-B
Fri 06:51:10 PM 33.8620 -79.0850 201° Southwest 436 502 32,000  Level FlightAware ADS-B
Fri 06:51:55 PM 33.7780 -79.1240 201° Southwest 437 503 32,000  Level FlightAware ADS-B
Fri 06:52:35 PM 33.7030 -79.1590 201° Southwest 436 502 32,000  Level FlightAware ADS-B
Fri 06:53:16 PM 33.6300 -79.1930 201° Southwest 437 503 32,000  Level FlightAware ADS-B
Fri 06:54:00 PM 33.5430 -79.2340 201° Southwest 436 502 32,000  Level FlightAware ADS-B
Fri 06:55:00 PM 33.4300 -79.2860 201° Southwest 439 505 32,000  Level FlightAware ADS-B
Fri 06:55:40 PM 33.3540 -79.3210 201° Southwest 441 507 32,000  Level FlightAware ADS-B
Fri 06:56:16 PM 33.2890 -79.3510 201° Southwest 441 507 32,000  Level FlightAware ADS-B
Fri 06:57:15 PM 33.1730 -79.4050 201° Southwest 443 510 32,000  Level FlightAware ADS-B
Fri 06:58:00 PM 33.0880 -79.4440 201° Southwest 445 512 32,000  Level FlightAware ADS-B
Fri 06:58:55 PM 32.9830 -79.4920 201° Southwest 444 511 32,000  Level FlightAware ADS-B
Fri 06:59:39 PM 33.3330 -79.3310 21° North 439 505 32,000  Level FlightAware ADS-B
Fri 07:02:03 PM 33.2090 -79.3880 201° Southwest 442 509 32,000  Level FlightAware ADS-B
Fri 07:02:51 PM 33.0740 -79.4500 201° Southwest 442 509 32,000  Level FlightAware ADS-B
Fri 07:03:26 PM 32.9740 -79.4970 202° Southwest 443 510 32,000  Level FlightAware ADS-B
Fri 07:04:12 PM 32.8530 -79.5520 201° Southwest 445 512 32,000  Level FlightAware ADS-B
Fri 07:05:00 PM 32.6880 -79.6270 201° Southwest 447 514 32,000  Level FlightAware ADS-B
Fri 07:05:44 PM 32.6680 -79.6360 201° Southwest 448 516 32,000  Level FlightAware ADS-B
Fri 07:06:29 PM 32.5910 -79.6710 201° Southwest 450 518 32,000  Level FlightAware ADS-B
Fri 07:07:20 PM 32.4460 -79.7360 201° Southwest 450 518 32,000  Level FlightAware ADS-B
Fri 07:08:08 PM 32.4280 -79.7450 203° Southwest 451 519 32,000  Level FlightAware ADS-B
Fri 07:09:12 PM 32.4470 -79.7370 20° North 451 519 32,000  Level FlightAware ADS-B
Fri 07:09:52 PM 32.4480 -79.7360 40° Northeast 451 519 32,000  Level FlightAware ADS-B
Fri 07:10:40 PM 32.4450 -79.7380 209° Southwest 451 519 32,000  Level FlightAware ADS-B
Fri 07:11:16 PM 32.3850 -79.7650 201° Southwest 451 519 32,000  Level FlightAware ADS-B
Fri 07:12:23 PM 32.3040 -79.8020 201° Southwest 451 519 32,000  Level FlightAware ADS-B
Fri 07:13:23 PM 32.2040 -79.8470 201° Southwest 451 519 32,000  Level FlightAware ADS-B
Fri 07:13:38 PM 32.3480 -79.7810 21° North 32,000  Level FlightAware ADS-B
Fri 07:14:14 PM 31.1275 -80.0069 21° North 469 540 32,000  Level Jacksonville Center
Fri 07:15:14 PM 30.9942 -80.0183 184° South 463 533 32,000 -50 Level Jacksonville Center
Fri 07:16:14 PM 30.8711 -80.0342 186° South 464 534 31,900  Descending Jacksonville Center
Fri 07:17:14 PM 30.7378 -80.0478 185° South 474 545 32,000 50 Climbing Jacksonville Center
Fri 07:18:14 PM 30.6067 -80.0592 184° South 475 547 32,000  Level Jacksonville Center
Fri 07:19:14 PM 30.4789 -80.0389 172° South 465 535 32,000  Level Jacksonville Center
Fri 07:20:14 PM 30.3489 -80.0161 171° South 470 541 32,000  Level Jacksonville Center
Fri 07:21:14 PM 30.2189 -79.9961 172° South 470 541 32,000  Level Jacksonville Center
Fri 07:22:14 PM 30.0892 -79.9758 172° South 470 541 32,000  Level Jacksonville Center
Fri 07:22:54 PM 30.0067 -79.9603 171° South 470 541 32,000  Level Miami Center
Fri 07:23:54 PM 29.8800 -79.9400 172° South 460 529 32,000  Level Miami Center
Fri 07:29:42 PM 29.1220 -79.8230 172° South 467 537 32,000  Level FlightAware ADS-B
Fri 07:30:52 PM 28.9890 -79.8010 172° South 467 537 32,000  Level FlightAware ADS-B
Fri 07:31:40 PM 28.8850 -79.7860 173° South 468 539 32,000  Level FlightAware ADS-B
Fri 07:32:40 PM 28.7540 -79.7470 165° South 475 547 32,000  Level FlightAware ADS-B
Fri 07:33:24 PM 28.6550 -79.7060 160° South 470 541 32,000  Level FlightAware ADS-B
Fri 07:34:01 PM 28.5890 -79.6840 164° South 470 541 32,000  Level FlightAware ADS-B
Fri 07:34:48 PM 28.4660 -79.6450 164° South 483 556 32,000  Level FlightAware ADS-B
Fri 07:35:28 PM 28.3800 -79.6160 163° South 484 557 32,000  Level FlightAware ADS-B
Fri 07:36:13 PM 28.2820 -79.5820 163° South 475 547 32,000  Level FlightAware ADS-B
Fri 07:36:54 PM 28.1950 -79.5580 166° South 474 545 32,000  Level FlightAware ADS-B
Fri 07:37:38 PM 28.0970 -79.5360 169° South 471 542 32,000  Level FlightAware ADS-B
Fri 07:38:28 PM 27.9900 -79.5260 175° South 467 537 32,000  Level FlightAware ADS-B
Fri 07:39:24 PM 27.8730 -79.5160 176° South 466 536 32,000  Level FlightAware ADS-B
Fri 07:40:03 PM 27.7800 -79.5140 179° South 470 541 32,000  Level FlightAware ADS-B
Fri 07:40:44 PM 27.6920 -79.5120 179° South 469 540 32,000  Level FlightAware ADS-B
Fri 07:41:44 PM 27.5620 -79.5120 180° South 467 537 32,000  Level FlightAware ADS-B
Fri 07:42:24 PM 27.4750 -79.5120 180° South 464 534 32,000  Level FlightAware ADS-B
Fri 07:43:04 PM 27.3900 -79.5110 179° South 463 533 32,000  Level FlightAware ADS-B
Fri 07:43:44 PM 27.3020 -79.5120 181° South 463 533 32,000  Level FlightAware ADS-B
Fri 07:44:25 PM 27.2210 -79.5120 180° South 463 533 32,000  Level FlightAware ADS-B
Fri 07:45:12 PM 27.1110 -79.5130 180° South 465 535 32,000  Level FlightAware ADS-B
Fri 07:45:55 PM 27.0190 -79.5130 180° South 464 534 32,000  Level FlightAware ADS-B
Fri 07:46:37 PM 26.9290 -79.5130 180° South 463 533 32,000  Level FlightAware ADS-B
Fri 07:47:13 PM 26.8540 -79.5140 181° South 463 533 32,000  Level FlightAware ADS-B
Fri 07:47:52 PM 26.7660 -79.5140 180° South 464 534 32,000  Level FlightAware ADS-B
Fri 07:48:36 PM 26.6720 -79.5150 181° South 465 535 32,000  Level FlightAware ADS-B
Fri 07:49:33 PM 26.5500 -79.5170 181° South 468 539 32,000  Level FlightAware ADS-B
Fri 07:50:13 PM 26.4670 -79.5180 181° South 470 541 32,000 145 Level FlightAware ADS-B
Fri 07:50:56 PM 26.3690 -79.5200 181° South 469 540 32,200 635 Climbing FlightAware ADS-B
Fri 07:51:38 PM 26.2780 -79.5220 181° South 465 535 32,900 558 Climbing FlightAware ADS-B
Fri 07:52:22 PM 26.1820 -79.5240 181° South 467 537 33,000 73 Climbing FlightAware ADS-B
Fri 07:53:00 PM 26.1000 -79.5260 181° South 468 539 33,000  Level FlightAware ADS-B
Fri 07:53:46 PM 26.0010 -79.5280 181° South 467 537 33,000  Level FlightAware ADS-B
Fri 07:54:26 PM 25.9130 -79.5310 182° South 467 537 33,000  Level FlightAware ADS-B
Fri 07:55:06 PM 25.8280 -79.5340 182° South 467 537 33,000  Level FlightAware ADS-B
Fri 07:55:51 PM 25.7320 -79.5370 182° South 466 536 33,000  Level FlightAware ADS-B
Fri 07:56:26 PM 25.6550 -79.5400 182° South 466 536 33,000  Level FlightAware ADS-B
Fri 07:57:06 PM 25.5680 -79.5440 182° South 466 536 33,000  Level FlightAware ADS-B
Fri 07:57:51 PM 25.4730 -79.5470 182° South 466 536 33,000  Level FlightAware ADS-B
Fri 07:58:30 PM 25.3870 -79.5510 182° South 464 534 33,000  Level FlightAware ADS-B
Fri 07:59:10 PM 25.3020 -79.5540 182° South 463 533 33,000  Level FlightAware ADS-B
Fri 07:59:58 PM 25.1990 -79.5580 182° South 463 533 33,000  Level FlightAware ADS-B
Fri 08:00:38 PM 25.1130 -79.5610 182° South 464 534 33,000  Level FlightAware ADS-B
Fri 08:01:06 PM 25.0540 -79.5540 174° South 463 533 33,000  Level FlightAware ADS-B
Fri 08:01:47 PM 24.9730 -79.5180 158° South 462 532 33,000  Level FlightAware ADS-B
Fri 08:02:32 PM 24.8940 -79.4810 157° South 462 532 33,000  Level FlightAware ADS-B
Fri 08:03:08 PM 24.8340 -79.4530 157° South 462 532 33,000  Level FlightAware ADS-B
Fri 08:03:57 PM 24.7520 -79.4150 157° South 462 532 33,000  Level FlightAware ADS-B
Fri 08:04:33 PM 24.6910 -79.3870 157° South 462 532 33,000  Level FlightAware ADS-B
Fri 08:05:21 PM 24.6110 -79.3490 157° South 462 532 33,000  Level FlightAware ADS-B
Fri 08:05:57 PM 24.5510 -79.3210 157° South 462 532 33,000  Level FlightAware ADS-B
Fri 08:06:57 PM 24.4510 -79.2740 157° South 462 532 33,000  Level FlightAware ADS-B
Fri 08:07:33 PM 24.3900 -79.2460 157° South 462 532 33,000  Level FlightAware ADS-B
Fri 08:08:09 PM 24.3300 -79.2180 157° South 462 532 33,000  Level FlightAware ADS-B
Fri 08:08:58 PM 24.2480 -79.1800 157° South 462 532 33,000  Level FlightAware ADS-B
Fri 08:09:34 PM 24.1880 -79.1520 157° South 462 532 33,000  Level FlightAware ADS-B
Fri 08:10:10 PM 24.1280 -79.1240 157° South 462 532 33,000  Level FlightAware ADS-B
Fri 08:11:27 PM 23.9990 -79.0640 157° South 462 532 33,000  Level FlightAware ADS-B
Fri 08:18:00 PM 23.2068 -79.0375 178° South  Level FlightAware Approximate
Fri 08:19:00 PM 23.0859 -79.0335 178° South  Level FlightAware Approximate
Fri 08:20:00 PM 22.9649 -79.0295 178° South  Level FlightAware Approximate
Fri 08:21:00 PM 22.8440 -79.0255 178° South  Level FlightAware Approximate
Fri 08:22:00 PM 22.7231 -79.0215 178° South  Level FlightAware Approximate
Fri 08:23:00 PM 22.6021 -79.0175 178° South  Level FlightAware Approximate
Fri 08:24:00 PM 22.4812 -79.0135 178° South  Level FlightAware Approximate
Fri 08:25:00 PM 22.3602 -79.0096 178° South  Level FlightAware Approximate
Fri 08:26:00 PM 22.2393 -79.0056 178° South  Level FlightAware Approximate
Fri 08:27:00 PM 22.1184 -79.0016 178° South  Level FlightAware Approximate
Fri 08:28:00 PM 21.9974 -78.9977 178° South  Level FlightAware Approximate
Fri 08:29:00 PM 21.8765 -78.9937 178° South  Level FlightAware Approximate
Fri 08:30:00 PM 21.7555 -78.9898 178° South  Level FlightAware Approximate
Fri 08:31:00 PM 21.6346 -78.9858 178° South  Level FlightAware Approximate
Fri 08:32:00 PM 21.5136 -78.9819 178° South  Level FlightAware Approximate
Fri 08:33:00 PM 21.3927 -78.9780 178° South  Level FlightAware Approximate
Fri 08:34:00 PM 21.2717 -78.9741 178° South  Level FlightAware Approximate
Fri 08:35:00 PM 21.1508 -78.9702 178° South  Level FlightAware Approximate
Fri 08:36:00 PM 21.0298 -78.9663 178° South  Level FlightAware Approximate
Fri 08:37:00 PM 20.9089 -78.9624 178° South  Level FlightAware Approximate
Fri 08:38:00 PM 20.7879 -78.9585 178° South  Level FlightAware Approximate
Fri 08:39:00 PM 20.6670 -78.9546 178° South  Level FlightAware Approximate
Fri 08:40:00 PM 20.5460 -78.9508 178° South  Level FlightAware Approximate
Fri 08:41:00 PM 20.4251 -78.9469 178° South  Level FlightAware Approximate
Fri 08:42:00 PM 20.3041 -78.9430 178° South  Level FlightAware Approximate
Fri 08:43:00 PM 20.1832 -78.9392 178° South  Level FlightAware Approximate
Fri 08:44:00 PM 20.0622 -78.9353 178° South  Level FlightAware Approximate
Fri 08:45:00 PM 19.9395 -78.9369 183° South  Level FlightAware Approximate
Fri 08:46:00 PM 19.8187 -78.9439 183° South  Level FlightAware Approximate
Fri 08:47:00 PM 19.6979 -78.9509 183° South  Level FlightAware Approximate
Fri 08:48:00 PM 19.5770 -78.9579 183° South  Level FlightAware Approximate
Fri 08:49:00 PM 19.4562 -78.9649 183° South  Level FlightAware Approximate
Fri 08:50:00 PM 19.3354 -78.9719 183° South  Level FlightAware Approximate
Fri 08:51:00 PM 19.2146 -78.9789 183° South  Level FlightAware Approximate
Fri 08:52:00 PM 19.0938 -78.9859 183° South  Level FlightAware Approximate
Fri 08:53:00 PM 18.9729 -78.9928 183° South  Level FlightAware Approximate
Fri 08:54:00 PM 18.8521 -78.9998 183° South  Level FlightAware Approximate
Fri 08:55:00 PM 18.7313 -79.0067 183° South  Level FlightAware Approximate
Fri 08:56:00 PM 18.6105 -79.0137 183° South  Level FlightAware Approximate
Fri 08:57:00 PM 18.4897 -79.0206 183° South  Level FlightAware Approximate
Fri 08:58:00 PM 18.3688 -79.0275 183° South  Level FlightAware Approximate
Fri 08:59:00 PM 18.2480 -79.0344 183° South  Level FlightAware Approximate
Fri 09:00:00 PM 18.1272 -79.0413 183° South  Level FlightAware Approximate
Fri 09:01:00 PM 18.0064 -79.0482 183° South  Level FlightAware Approximate
Fri 09:02:00 PM 17.8856 -79.0551 183° South  Level FlightAware Approximate
Fri 09:03:00 PM 17.7647 -79.0619 183° South  Level FlightAware Approximate
Fri 09:04:00 PM 17.6439 -79.0688 183° South  Level FlightAware Approximate
Fri 09:05:00 PM 17.5231 -79.0756 183° South  Level FlightAware Approximate
Fri 09:06:00 PM 17.4023 -79.0825 183° South  Level FlightAware Approximate
Fri 09:07:00 PM 17.2815 -79.0893 183° South  Level FlightAware Approximate
Fri 09:08:00 PM 17.1606 -79.0961 183° South  Level FlightAware Approximate
Fri 09:09:00 PM 17.0398 -79.1029 183° South  Level FlightAware Approximate
Fri 09:10:00 PM 16.9190 -79.1097 183° South  Level FlightAware Approximate
Fri 09:11:00 PM 16.7938 -79.1168 183° South  Level FlightAware Approximate
Fri 09:12:00 PM 16.6685 -79.1238 183° South  Level FlightAware Approximate
Fri 09:13:00 PM 16.5433 -79.1308 183° South  Level FlightAware Approximate
Fri 09:14:00 PM 16.4181 -79.1378 183° South  Level FlightAware Approximate
Fri 09:15:00 PM 16.2928 -79.1449 183° South  Level FlightAware Approximate
Fri 09:16:00 PM 16.1676 -79.1518 183° South  Level FlightAware Approximate
Fri 09:17:00 PM 16.0424 -79.1588 183° South  Level FlightAware Approximate
Fri 09:18:00 PM 15.9171 -79.1658 183° South  Level FlightAware Approximate
Fri 09:19:00 PM 15.7919 -79.1728 183° South  Level FlightAware Approximate
Fri 09:20:00 PM 15.6667 -79.1797 183° South  Level FlightAware Approximate
Fri 09:21:00 PM 15.5415 -79.1867 183° South  Level FlightAware Approximate
Fri 09:22:00 PM 15.4162 -79.1936 183° South  Level FlightAware Approximate
Fri 09:23:00 PM 15.2910 -79.2006 183° South  Level FlightAware Approximate
Fri 09:24:00 PM 15.1658 -79.2075 183° South  Level FlightAware Approximate
Fri 09:25:00 PM 15.0405 -79.2144 183° South  Level FlightAware Approximate
Fri 09:26:00 PM 14.9153 -79.2212 183° South  Level FlightAware Approximate
Fri 09:27:00 PM 14.7901 -79.2280 183° South  Level FlightAware Approximate
Fri 09:28:00 PM 14.6648 -79.2347 183° South  Level FlightAware Approximate
Fri 09:29:00 PM 14.5396 -79.2415 183° South  Level FlightAware Approximate
Fri 09:30:00 PM 14.4143 -79.2482 183° South  Level FlightAware Approximate
Fri 09:31:00 PM 14.2891 -79.2550 183° South  Level FlightAware Approximate
Fri 09:32:00 PM 14.1639 -79.2617 183° South  Level FlightAware Approximate
Fri 09:33:00 PM 14.0386 -79.2684 183° South  Level FlightAware Approximate
Fri 09:34:00 PM 13.9134 -79.2751 183° South  Level FlightAware Approximate
Fri 09:35:00 PM 13.7881 -79.2818 183° South  Level FlightAware Approximate
Fri 09:36:00 PM 13.6629 -79.2885 183° South  Level FlightAware Approximate
Fri 09:37:00 PM 13.5377 -79.2952 183° South  Level FlightAware Approximate
Fri 09:38:00 PM 13.4124 -79.3018 183° South  Level FlightAware Approximate
Fri 09:38:38 PM 12.2020 -79.3870 183° South 486 559 33,000  Level FlightAware ADS-B
Fri 09:39:00 PM 13.2872 -79.3085 183° South  Level FlightAware Approximate
Fri 09:39:24 PM 12.0970 -79.3920 183° South 484 557 33,000  Level FlightAware ADS-B
Fri 09:40:00 PM 12.0170 -79.3960 183° South 482 555 33,000  Level FlightAware ADS-B
Fri 09:40:40 PM 11.9280 -79.4000 183° South 481 554 33,000  Level FlightAware ADS-B
Fri 09:41:20 PM 11.8390 -79.4040 183° South 479 551 33,000  Level FlightAware ADS-B
Fri 09:42:00 PM 11.7480 -79.4080 182° South 470 541 33,000  Level FlightAware ADS-B
Fri 09:42:35 PM 11.6710 -79.4120 183° South 469 540 33,000  Level FlightAware ADS-B
Fri 09:43:20 PM 11.5730 -79.4170 183° South 468 539 33,000  Level FlightAware ADS-B
Fri 09:44:00 PM 11.4840 -79.4210 183° South 467 537 33,000  Level FlightAware ADS-B
Fri 09:44:40 PM 11.3970 -79.4250 183° South 467 537 33,000  Level FlightAware ADS-B
Fri 09:45:25 PM 11.2960 -79.4300 183° South 466 536 33,000  Level FlightAware ADS-B
Fri 09:46:05 PM 11.2090 -79.4340 183° South 466 536 33,000  Level FlightAware ADS-B
Fri 09:46:50 PM 11.1110 -79.4380 182° South 466 536 33,000  Level FlightAware ADS-B
Fri 09:47:25 PM 11.0340 -79.4420 183° South 467 537 33,000  Level FlightAware ADS-B
Fri 09:48:05 PM 10.9440 -79.4460 182° South 467 537 33,000  Level FlightAware ADS-B
Fri 09:48:50 PM 10.8450 -79.4510 183° South 466 536 33,000 -320 Level FlightAware ADS-B
Fri 09:49:20 PM 10.7800 -79.4540 183° South 469 540 32,600 -960 Descending FlightAware ADS-B
Fri 09:50:05 PM 10.6830 -79.4580 182° South 463 533 31,800 -1,200 Descending FlightAware ADS-B
Fri 09:50:45 PM 10.5980 -79.4620 183° South 450 518 30,900 -1,624 Descending FlightAware ADS-B
Fri 09:51:30 PM 10.5030 -79.4670 183° South 450 518 29,500 -1,884 Descending FlightAware ADS-B
Fri 09:52:11 PM 10.4190 -79.4720 183° South 431 496 28,200 -1,953 Descending FlightAware ADS-B
Fri 09:52:56 PM 10.3270 -79.4770 183° South 419 482 26,700 -1,976 Descending FlightAware ADS-B
Fri 09:53:36 PM 10.2490 -79.4810 183° South 421 484 25,400 -1,920 Descending FlightAware ADS-B
Fri 09:54:11 PM 10.1800 -79.4850 183° South 417 480 24,300 -1,895 Descending FlightAware ADS-B
Fri 09:54:52 PM 10.1020 -79.4890 183° South 401 461 23,000 -1,953 Descending FlightAware ADS-B
Fri 09:55:37 PM 10.0160 -79.4940 183° South 401 461 21,500 -2,000 Descending FlightAware ADS-B
Fri 09:56:07 PM 9.9610 -79.4970 183° South 388 447 20,500 -2,320 Descending FlightAware ADS-B
Fri 09:56:52 PM 9.8790 -79.5010 183° South 389 448 18,600 -2,471 Descending FlightAware ADS-B
Fri 09:57:32 PM 9.8050 -79.5060 184° South 390 449 17,000 -2,400 Descending FlightAware ADS-B
Fri 09:58:17 PM 9.7220 -79.5110 183° South 386 444 15,200 -1,412 Descending FlightAware ADS-B
Fri 09:58:57 PM 9.6540 -79.5140 182° South 356 410 15,000 -1,111 Descending FlightAware ADS-B
Fri 09:59:38 PM 9.5870 -79.5180 183° South 353 406 13,700 -1,884 Descending FlightAware ADS-B
Fri 10:00:23 PM 9.5130 -79.5220 183° South 341 392 12,300 -1,875 Descending FlightAware ADS-B
Fri 10:00:58 PM 9.4560 -79.5250 183° South 339 390 11,200 -1,680 Descending FlightAware ADS-B
Fri 10:01:38 PM 9.3940 -79.5280 183° South 326 375 10,200 -1,286 Descending FlightAware ADS-B
Fri 10:02:08 PM 9.3500 -79.5310 184° South 304 350 9,700 -1,200 Descending FlightAware ADS-B
Fri 10:02:33 PM 9.3170 -79.5330 183° South 292 336 9,100 -1,680 Descending FlightAware ADS-B
Fri 10:02:58 PM 9.2820 -79.5350 183° South 288 331 8,300 -1,800 Descending FlightAware ADS-B
Fri 10:03:23 PM 9.2490 -79.5370 183° South 275 316 7,600 -1,636 Descending FlightAware ADS-B
Fri 10:03:53 PM 9.2100 -79.5390 183° South 278 320 6,800 -1,309 Descending FlightAware ADS-B
Fri 10:04:18 PM 9.1790 -79.5400 182° South 262 302 6,400 -1,091 Descending FlightAware ADS-B
Fri 10:04:48 PM 9.1440 -79.5420 183° South 239 275 5,800 -1,418 Descending FlightAware ADS-B
Fri 10:05:13 PM 9.1160 -79.5440 184° South 224 258 5,100 -1,733 Descending FlightAware ADS-B
Fri 10:05:33 PM 9.0960 -79.5450 183° South 230 265 4,500 -1,333 Descending FlightAware ADS-B
Fri 10:05:58 PM 9.0700 -79.5460 182° South 207 238 4,100 -436 Descending FlightAware ADS-B
Fri 10:06:28 PM 9.0420 -79.5480 184° South 191 220 4,100  Level FlightAware ADS-B
Fri 10:06:38 PM 9.0330 -79.5490 186° South 182 209 4,100  Level FlightAware ADS-B
Fri 10:07:08 PM 9.0070 -79.5500 182° South 182 209 4,100  Level FlightAware ADS-B
Fri 10:07:23 PM 8.9950 -79.5510 185° South 182 209 4,100  Level FlightAware ADS-B
Fri 10:07:50 PM 8.9760 -79.5520 183° South 182 209 4,100 -559 Level FlightAware ADS-B
Fri 10:10:00 PM 8.8542 -79.5139 33° Northeast  Level FlightAware Approximate
Fri 10:10:18 PM 8.9300 -79.4750 33° Northeast 1,800  Level FlightAware ADS-B
Fri 10:11:30 PM 8.9640 -79.4300 53° Northeast 174 200 1,800 -297 Level FlightAware ADS-B
Fri 10:11:59 PM 8.9940 -79.4230 13° North 153 176 1,300 -915 Descending FlightAware ADS-B
Fri 10:12:29 PM 9.0140 -79.4120 29° Northeast 149 171 900 -800 Descending FlightAware ADS-B
Fri 10:12:59 PM 9.0320 -79.4010 31° Northeast 150 173 500 -800 Descending FlightAware ADS-B
Fri 10:13:29 PM 9.0510 -79.3910 27° Northeast 152 175 100 -800 Descending FlightAware ADS-B
Fri 10:13:39 PM 9.0560 -79.3880 31° Northeast 140 161 -600 Descending FlightAware ADS-B
Fri 10:14:09 PM 9.0640 -79.3840 26° Northeast 26 30  Level FlightAware ADS-B

Login

Don't have an account? Register now (free) for customized features, flight alerts, and more!